createdAt,value
2023-03-23T15:58:34.572Z,2.25
2023-03-23T15:59:37.859Z,2.30
2023-03-23T16:00:40.924Z,2.42
2023-03-23T16:01:45.248Z,2.42
2023-03-23T16:02:50.003Z,2.65
2023-03-23T16:03:54.484Z,2.00
2023-03-23T16:04:56.788Z,2.72
2023-03-23T16:06:03.215Z,2.67
2023-03-23T16:07:07.576Z,1.98
2023-03-23T16:08:11.182Z,2.50
2023-03-23T16:09:16.300Z,2.63
2023-03-23T16:10:19.841Z,2.30
2023-03-23T16:11:23.151Z,2.78
2023-03-23T16:12:25.503Z,2.63
2023-03-23T16:13:28.929Z,2.92
2023-03-23T16:14:31.252Z,2.72
2023-03-23T16:15:34.551Z,2.53
2023-03-23T16:16:39.586Z,2.38
2023-03-23T16:17:42.225Z,3.95
2023-03-23T16:18:46.899Z,2.50
2023-03-23T16:19:50.040Z,2.70
2023-03-23T16:20:53.779Z,2.60
2023-03-23T16:21:56.168Z,2.75
2023-03-23T16:22:59.427Z,3.17
2023-03-23T16:24:01.756Z,3.40
2023-03-23T16:25:05.345Z,2.60
2023-03-23T16:26:07.820Z,3.38
2023-03-23T16:27:11.636Z,2.72
2023-03-23T16:28:15.805Z,2.95
2023-03-23T16:29:39.757Z,2.92
2023-03-23T16:30:42.865Z,4.75
2023-03-23T16:31:45.453Z,2.97
2023-03-23T16:32:48.857Z,3.00
2023-03-23T16:33:53.542Z,2.83
2023-03-23T16:34:55.974Z,2.38
2023-03-23T16:35:59.250Z,2.00
2023-03-23T16:37:02.799Z,1.83
2023-03-23T16:38:07.541Z,2.33
2023-03-23T16:39:13.246Z,2.10
2023-03-23T16:40:17.186Z,1.75
2023-03-23T16:41:19.554Z,1.10
2023-03-23T16:42:22.831Z,1.73
2023-03-23T16:43:25.339Z,1.50
2023-03-23T16:44:28.626Z,1.85
2023-03-23T16:45:31.944Z,1.45
2023-03-23T16:46:35.270Z,1.42
2023-03-23T16:47:37.626Z,1.20
2023-03-23T16:48:40.931Z,1.48
2023-03-23T16:49:45.585Z,1.52
2023-03-23T16:50:48.862Z,1.42
2023-03-23T16:51:51.245Z,1.35
2023-03-23T16:52:54.561Z,1.20
2023-03-23T16:53:57.907Z,1.30
2023-03-23T16:55:00.567Z,1.75
2023-03-23T16:56:03.933Z,2.15
2023-03-23T16:57:06.697Z,3.33
2023-03-23T16:58:17.024Z,4.45
2023-03-23T16:59:21.143Z,4.35
2023-03-23T17:00:25.281Z,8.00
2023-03-23T17:01:28.661Z,7.03
2023-03-23T17:02:31.102Z,7.78
2023-03-23T17:03:34.856Z,2.60
2023-03-23T17:04:38.094Z,3.50
2023-03-23T17:05:43.196Z,4.65
2023-03-23T17:06:46.733Z,4.10
2023-03-23T17:07:50.508Z,3.40
2023-03-23T17:08:52.822Z,4.40
2023-03-23T17:09:56.179Z,4.13
2023-03-23T17:10:59.670Z,4.95
2023-03-23T17:12:02.012Z,1.92
2023-03-23T17:13:05.334Z,1.80
2023-03-23T17:14:08.604Z,1.80
2023-03-23T17:15:11.493Z,1.60
2023-03-23T17:16:14.872Z,1.70
2023-03-23T17:17:17.223Z,1.30
2023-03-23T17:18:20.499Z,1.83
2023-03-23T17:19:23.773Z,1.50
2023-03-23T17:20:27.046Z,1.52
2023-03-23T17:21:31.042Z,1.45
2023-03-23T17:22:34.352Z,1.90
2023-03-23T17:23:37.737Z,2.05
2023-03-23T17:24:40.064Z,1.92
2023-03-23T17:25:43.528Z,1.67
2023-03-23T17:26:45.898Z,1.88
2023-03-23T17:27:49.442Z,1.73
2023-03-23T17:28:51.819Z,2.28
2023-03-23T17:29:55.154Z,2.50
2023-03-23T17:30:57.546Z,2.03
2023-03-23T17:32:00.840Z,2.15
2023-03-23T17:33:03.210Z,2.17
2023-03-23T17:34:06.628Z,2.90
2023-03-23T17:35:09.275Z,2.72
2023-03-23T17:36:12.686Z,2.60
2023-03-23T17:37:16.845Z,2.40
2023-03-23T17:38:20.153Z,2.10
2023-03-23T17:39:22.464Z,2.25
2023-03-23T17:40:25.854Z,2.33
2023-03-23T17:41:29.261Z,2.10
2023-03-23T17:42:31.603Z,2.28
2023-03-23T17:43:35.656Z,2.28
2023-03-23T17:44:38.279Z,2.80
2023-03-23T17:45:45.019Z,2.60
2023-03-23T17:46:48.940Z,2.45
2023-03-23T17:47:52.311Z,2.70
2023-03-23T17:48:54.688Z,2.97
2023-03-23T17:49:57.992Z,3.10
2023-03-23T17:51:02.328Z,2.90
2023-03-23T17:52:05.874Z,3.00
2023-03-23T17:53:11.340Z,2.80
2023-03-23T17:54:14.620Z,2.90
2023-03-23T17:55:17.333Z,2.70
2023-03-23T17:56:20.606Z,3.15
2023-03-23T17:57:22.900Z,2.70
2023-03-23T17:58:26.982Z,2.60
2023-03-23T17:59:29.262Z,2.92
2023-03-23T18:00:32.574Z,3.10
2023-03-23T18:01:34.975Z,3.03
2023-03-23T18:02:38.649Z,2.97
2023-03-23T18:03:41.084Z,2.92
2023-03-23T18:04:44.382Z,2.45
2023-03-23T18:05:46.690Z,2.78
2023-03-23T18:06:49.983Z,3.00
2023-03-23T18:07:53.324Z,3.22
2023-03-23T18:08:56.990Z,2.88
2023-03-23T18:10:00.717Z,3.15
2023-03-23T18:11:03.296Z,3.25
2023-03-23T18:12:07.006Z,3.03
2023-03-23T18:13:09.856Z,3.35
2023-03-23T18:14:13.130Z,3.58
2023-03-23T18:15:15.976Z,3.47
2023-03-23T18:16:19.704Z,3.47
2023-03-23T18:17:22.040Z,3.70
2023-03-23T18:18:26.075Z,3.85
2023-03-23T18:19:28.967Z,3.55
2023-03-23T18:20:32.747Z,3.60
2023-03-23T18:21:35.066Z,3.90
2023-03-23T18:22:38.422Z,3.83
2023-03-23T18:23:52.981Z,3.22
2023-03-23T18:25:05.160Z,5.32
2023-03-23T18:26:08.402Z,3.90
2023-03-23T18:27:11.926Z,4.70
2023-03-23T18:28:15.655Z,4.32
2023-03-23T18:29:17.943Z,5.10
2023-03-23T18:30:21.259Z,7.65
2023-03-23T18:31:23.867Z,10.15
2023-03-23T18:32:27.742Z,7.53
2023-03-23T18:33:30.276Z,13.75
2023-03-23T18:34:33.567Z,13.05
2023-03-23T18:35:35.921Z,13.63
2023-03-23T18:36:42.027Z,16.63
2023-03-23T18:37:45.324Z,14.02
2023-03-23T18:38:48.042Z,13.55
2023-03-23T18:39:51.348Z,12.07
2023-03-23T18:40:55.513Z,17.40
2023-03-23T18:41:58.878Z,13.52
2023-03-23T18:43:01.151Z,10.10
2023-03-23T18:44:04.453Z,14.55
2023-03-23T18:45:07.472Z,9.25
2023-03-23T18:46:10.870Z,5.35
2023-03-23T18:47:14.198Z,5.63
2023-03-23T18:48:16.476Z,5.40
2023-03-23T18:49:19.784Z,5.25
2023-03-23T18:50:22.094Z,5.53
2023-03-23T18:51:26.151Z,5.72
2023-03-23T18:52:30.862Z,5.13
2023-03-23T18:53:34.344Z,4.47
2023-03-23T18:54:40.413Z,4.70
2023-03-23T18:55:43.093Z,4.85
2023-03-23T18:56:48.176Z,4.57
2023-03-23T18:57:50.668Z,4.80
2023-03-23T18:58:54.596Z,4.28
2023-03-23T18:59:56.889Z,5.00
2023-03-23T19:01:03.867Z,5.10
2023-03-23T19:02:07.343Z,4.75
2023-03-23T19:03:10.259Z,4.85
2023-03-23T19:04:15.030Z,5.38
2023-03-23T19:05:17.402Z,5.03
2023-03-23T19:06:21.309Z,5.20
2023-03-23T19:07:24.865Z,6.10
2023-03-23T19:08:27.395Z,6.30
2023-03-23T19:09:30.893Z,6.43
2023-03-23T19:10:36.697Z,5.75
2023-03-23T19:11:40.002Z,6.22
2023-03-23T19:12:43.642Z,6.25
2023-03-23T19:13:58.023Z,6.15
2023-03-23T19:15:06.653Z,6.20
2023-03-23T19:16:09.208Z,5.47
2023-03-23T19:17:12.571Z,6.03
2023-03-23T19:18:14.871Z,6.93
2023-03-23T19:19:18.474Z,6.57
2023-03-23T19:20:37.422Z,6.47
2023-03-23T19:21:47.033Z,5.65
2023-03-23T19:22:49.605Z,6.25
2023-03-23T19:23:53.222Z,6.18
2023-03-23T19:24:57.077Z,6.80
2023-03-23T19:25:59.423Z,5.93
2023-03-23T19:27:02.752Z,7.32
2023-03-23T19:30:19.594Z,6.57
2023-03-23T19:31:25.056Z,7.07
2023-03-23T19:32:28.484Z,7.50
2023-03-23T19:33:31.125Z,7.00
2023-03-23T19:34:34.478Z,7.88
2023-03-23T19:35:37.425Z,7.20
2023-03-23T19:36:41.216Z,7.45
2023-03-23T19:37:45.633Z,7.90
2023-03-23T19:38:49.199Z,7.60
2023-03-23T19:39:52.495Z,7.35
2023-03-23T19:40:57.730Z,8.20
2023-03-23T19:42:01.377Z,7.28
2023-03-23T19:43:05.948Z,7.40
2023-03-23T19:44:09.819Z,7.95
2023-03-23T19:45:13.126Z,7.65
2023-03-23T19:46:15.847Z,8.77
2023-03-23T19:47:19.208Z,8.15
2023-03-23T19:48:21.621Z,8.00
2023-03-23T19:49:25.367Z,8.18
2023-03-23T19:50:28.659Z,7.97
2023-03-23T19:51:32.240Z,7.85
2023-03-23T19:52:35.703Z,8.55
2023-03-23T19:53:39.858Z,8.63
2023-03-23T19:54:42.361Z,9.18
2023-03-23T19:55:45.802Z,8.80
2023-03-23T19:56:48.642Z,8.52
2023-03-23T19:57:51.982Z,9.07
2023-03-23T19:58:54.333Z,9.18
2023-03-23T19:59:59.212Z,8.73
2023-03-23T20:01:02.067Z,8.70
2023-03-23T20:02:05.522Z,7.63
2023-03-23T20:03:08.977Z,7.47
2023-03-23T20:04:11.781Z,7.53
2023-03-23T20:05:15.253Z,7.88
2023-03-23T20:06:20.957Z,7.65
2023-03-23T20:07:26.411Z,8.25
2023-03-23T20:08:31.319Z,7.72
2023-03-23T20:09:33.729Z,8.23
2023-03-23T20:10:37.196Z,8.18
2023-03-23T20:11:39.728Z,8.18
2023-03-23T20:12:43.191Z,8.00
2023-03-23T20:13:46.019Z,8.13
2023-03-23T20:14:49.323Z,7.25
2023-03-23T20:15:53.911Z,7.28
2023-03-23T20:16:57.201Z,6.00
2023-03-23T20:17:59.633Z,6.47
2023-03-23T20:19:04.749Z,6.78
2023-03-23T20:20:10.314Z,6.45
2023-03-23T20:21:15.115Z,6.57
2023-03-23T20:22:17.643Z,6.68
2023-03-23T20:23:20.937Z,6.03
2023-03-23T20:24:23.274Z,5.63
2023-03-23T20:25:26.666Z,5.82
2023-03-23T20:26:30.783Z,5.78
2023-03-23T20:27:34.084Z,5.43
2023-03-23T20:28:36.480Z,5.10
2023-03-23T20:29:39.767Z,4.35
2023-03-23T20:30:43.186Z,4.50
2023-03-23T20:31:46.927Z,4.93
2023-03-23T20:32:52.010Z,4.80
2023-03-23T20:34:00.572Z,5.38
2023-03-23T20:35:06.464Z,4.53
2023-03-23T20:36:09.637Z,4.60
2023-03-23T20:37:16.333Z,4.93
2023-03-23T20:38:18.639Z,3.88
2023-03-23T20:39:23.425Z,3.88
2023-03-23T20:40:26.770Z,3.90
2023-03-23T20:41:29.517Z,4.10
2023-03-23T20:42:33.533Z,3.75
2023-03-23T20:43:36.207Z,4.03
2023-03-23T20:44:39.576Z,4.30
2023-03-23T20:45:44.386Z,4.32
2023-03-23T20:46:49.943Z,4.00
2023-03-23T20:47:53.804Z,4.75
2023-03-23T20:48:56.180Z,4.55
2023-03-23T20:50:00.260Z,3.45
2023-03-23T20:51:03.082Z,3.80
2023-03-23T20:52:08.290Z,3.97
2023-03-23T20:53:11.599Z,4.13
2023-03-23T20:54:15.805Z,3.58
2023-03-23T20:55:19.626Z,3.55
2023-03-23T20:56:22.474Z,3.53
2023-03-23T20:57:25.888Z,2.97
2023-03-23T20:58:28.958Z,3.55
2023-03-23T20:59:32.248Z,3.30
2023-03-23T21:00:34.556Z,3.78
2023-03-23T21:01:40.043Z,3.20
2023-03-23T21:02:44.790Z,3.58
2023-03-23T21:03:47.108Z,3.30
2023-03-23T21:04:53.110Z,3.08
2023-03-23T21:05:55.772Z,3.38
2023-03-23T21:07:00.496Z,3.28
2023-03-23T21:08:03.498Z,3.13
2023-03-23T21:09:06.816Z,3.80
2023-03-23T21:10:09.148Z,3.30
2023-03-23T21:11:15.713Z,3.75
2023-03-23T21:12:19.004Z,3.45
2023-03-23T21:13:21.418Z,3.28
2023-03-23T21:14:24.705Z,2.92
2023-03-23T21:15:28.064Z,2.92
2023-03-23T21:16:30.800Z,3.10
2023-03-23T21:17:34.302Z,2.50
2023-03-23T21:18:38.233Z,2.60
2023-03-23T21:19:41.739Z,2.95
2023-03-23T21:20:45.233Z,2.88
2023-03-23T21:21:56.428Z,2.67
2023-03-23T21:23:01.517Z,2.78
2023-03-23T21:24:04.274Z,3.83
2023-03-23T21:25:10.033Z,3.38
2023-03-23T21:26:12.363Z,3.25
2023-03-23T21:27:15.644Z,3.25
2023-03-23T21:28:19.417Z,2.90
2023-03-23T21:29:24.280Z,2.85
2023-03-23T21:30:26.721Z,2.75
2023-03-23T21:31:35.199Z,3.55
2023-03-23T21:32:37.522Z,2.92
2023-03-23T21:33:42.355Z,2.70
2023-03-23T21:34:47.499Z,3.28
2023-03-23T21:35:50.894Z,2.50
2023-03-23T21:36:53.263Z,2.78
2023-03-23T21:37:58.256Z,3.05
2023-03-23T21:39:02.157Z,3.22
2023-03-23T21:40:06.862Z,2.80
2023-03-23T21:41:10.161Z,2.80
2023-03-23T21:42:14.612Z,2.90
2023-03-23T21:43:16.960Z,2.58
2023-03-23T21:44:20.273Z,3.38
2023-03-23T21:45:22.615Z,2.97
2023-03-23T21:46:26.001Z,3.15
2023-03-23T21:47:30.732Z,3.40
2023-03-23T21:48:34.028Z,2.83
2023-03-23T21:49:40.567Z,3.05
2023-03-23T21:50:43.786Z,3.15
2023-03-23T21:51:48.783Z,3.10
2023-03-23T21:52:54.031Z,2.90
2023-03-23T21:53:57.960Z,3.10
2023-03-23T21:55:02.692Z,2.97
2023-03-23T21:56:06.912Z,2.67
2023-03-23T21:57:09.309Z,3.30
2023-03-23T21:58:12.659Z,3.10
2023-03-23T21:59:15.026Z,3.40
2023-03-23T22:00:18.917Z,2.78
2023-03-23T22:01:22.161Z,3.28
2023-03-23T22:02:25.696Z,3.28
2023-03-23T22:03:32.297Z,2.88
2023-03-23T22:04:35.697Z,3.72
2023-03-23T22:05:41.494Z,3.30
2023-03-23T22:06:44.790Z,3.47
2023-03-23T22:07:47.776Z,3.70
2023-03-23T22:08:51.172Z,3.75
2023-03-23T22:09:53.436Z,3.53
2023-03-23T22:11:01.999Z,3.88
2023-03-23T22:12:05.568Z,4.32
2023-03-23T22:13:07.892Z,3.60
2023-03-23T22:14:11.197Z,3.83
2023-03-23T22:15:15.186Z,3.63
2023-03-23T22:16:19.488Z,3.40
2023-03-23T22:17:21.836Z,3.90
2023-03-23T22:18:25.144Z,3.30
2023-03-23T22:19:28.551Z,3.20
2023-03-23T22:20:31.103Z,3.40
2023-03-23T22:21:36.622Z,3.67
2023-03-23T22:22:38.938Z,3.58
2023-03-23T22:23:42.471Z,3.40
2023-03-23T22:24:44.770Z,3.63
2023-03-23T22:25:48.039Z,3.80
2023-03-23T22:26:51.385Z,3.53
2023-03-23T22:27:55.319Z,3.40
2023-03-23T22:28:59.331Z,3.30
2023-03-23T22:30:01.918Z,3.30
2023-03-23T22:31:06.570Z,2.75
2023-03-23T22:32:08.948Z,2.97
2023-03-23T22:33:12.233Z,3.15
2023-03-23T22:34:14.548Z,2.97
2023-03-23T22:35:17.975Z,3.35
2023-03-23T22:36:21.790Z,3.28
2023-03-23T22:37:27.062Z,3.05
2023-03-23T22:38:29.362Z,3.35
2023-03-23T22:39:32.663Z,3.35
2023-03-23T22:40:35.002Z,3.10
2023-03-23T22:41:40.139Z,3.28
2023-03-23T22:42:42.527Z,3.05
2023-03-23T22:43:45.836Z,3.38
2023-03-23T22:44:49.126Z,2.95
2023-03-23T22:45:51.905Z,3.65
2023-03-23T22:46:55.228Z,3.58
2023-03-23T22:47:58.152Z,2.90
2023-03-23T22:49:01.472Z,3.20
2023-03-23T22:50:03.794Z,3.13
2023-03-23T22:51:07.294Z,3.15
2023-03-23T22:52:09.660Z,2.78
2023-03-23T22:53:14.318Z,3.30
2023-03-23T22:54:17.620Z,2.97
2023-03-23T22:55:20.544Z,3.42
2023-03-23T22:56:24.692Z,2.97
2023-03-23T22:57:27.171Z,2.90
2023-03-23T22:58:30.839Z,2.75
2023-03-23T22:59:33.170Z,2.50
2023-03-23T23:00:36.504Z,2.60
2023-03-23T23:01:38.912Z,2.45
2023-03-23T23:02:42.403Z,2.70
2023-03-23T23:03:44.992Z,2.72
2023-03-23T23:04:48.268Z,2.83
2023-03-23T23:05:51.514Z,2.63
2023-03-23T23:07:06.444Z,3.17
2023-03-23T23:08:18.061Z,2.92
2023-03-23T23:09:22.152Z,2.72
2023-03-23T23:10:25.531Z,2.65
2023-03-23T23:11:27.925Z,2.60
2023-03-23T23:12:35.059Z,2.80
2023-03-23T23:13:37.762Z,3.10
2023-03-23T23:14:41.755Z,2.85
2023-03-23T23:15:45.731Z,3.35
2023-03-23T23:16:49.455Z,2.90
2023-03-23T23:17:51.834Z,2.92
2023-03-23T23:18:57.119Z,2.90
2023-03-23T23:19:59.636Z,2.97
2023-03-23T23:21:05.945Z,2.90
2023-03-23T23:22:18.450Z,2.65
2023-03-23T23:23:24.156Z,3.17
2023-03-23T23:24:26.604Z,2.75
2023-03-23T23:25:30.537Z,3.10
2023-03-23T23:26:33.875Z,3.10
2023-03-23T23:27:36.387Z,3.33
2023-03-23T23:28:39.897Z,3.33
2023-03-23T23:29:42.853Z,3.30
2023-03-23T23:30:46.702Z,3.13
2023-03-23T23:31:49.160Z,3.42
2023-03-23T23:32:52.642Z,3.20
2023-03-23T23:33:55.847Z,3.22
2023-03-23T23:34:59.158Z,3.63
2023-03-23T23:36:01.781Z,3.10
2023-03-23T23:37:05.754Z,3.33
2023-03-23T23:38:09.592Z,3.22
2023-03-23T23:39:14.236Z,2.83
2023-03-23T23:40:18.015Z,3.35
2023-03-23T23:41:20.481Z,3.40
2023-03-23T23:42:25.038Z,3.13
2023-03-23T23:43:27.975Z,3.10
2023-03-23T23:44:31.231Z,3.20
2023-03-23T23:45:33.768Z,3.45
2023-03-23T23:46:37.101Z,3.20
2023-03-23T23:47:39.510Z,3.65
2023-03-23T23:48:42.816Z,3.42
2023-03-23T23:49:45.099Z,3.53
2023-03-23T23:50:48.493Z,3.50
2023-03-23T23:51:51.524Z,3.75
2023-03-23T23:52:55.207Z,3.58
2023-03-23T23:54:01.624Z,3.92
2023-03-23T23:55:07.579Z,3.78
2023-03-23T23:56:10.537Z,3.67
2023-03-23T23:57:13.836Z,3.13
2023-03-23T23:58:16.482Z,3.55
2023-03-23T23:59:19.754Z,3.60
